PWSweather.com
Personal Weather Stations
Station Observations
IRWAL55
LincentBE

LincentBE

Lat: 50.7128616, Lon: 5.030580299999997

Elevation: 80

Station Type: davis

Latest ConditionsUpdated 3:07:02 PM GMT+01:01 Sunday, Jul 21, 2019
Currently Today's Max Today's Min Today's Average
Temperature 75.9°F24.4°C 76.3°F24.6°C 57.4°F14.1°C 65.2°F18.4°C
Dew Point 58.6°F14.8°C 62.2°F16.8°C 55.0°F12.8°C 58.4°F14.7°C
Winds 2.0 mph W3.2 kmh W 2.9 mph -4.7 kmh - - 1.1 mph 1.8 kmh
Wind Gusts -- 6.0 mph9.7 kmh - -
Humidity 55% 94% 54% 80%
Pressure 30.16 in1021.3 mb 30.17 in1021.7 mb 29.98 in1015.2 mb -
Hour Temp Dew Point Humidity Winds Wind Gusts Pressure Precip Precip Rate Daily Precip Total
03:07 PM 75.9°F24.4°C 58.6°F14.8°C 55% 2.0 mph W3.2 kmh W -- 30.16 in1021.3 mb - 0.00 in0.0 mm 0.00 in0.0 mm
03:02 PM 76.3°F24.6°C 58.5°F14.7°C 54% 2.0 mph SSW3.2 kmh SSW 2.0 mph3.2 kmh 30.16 in1021.3 mb - 0.00 in0.0 mm 0.00 in0.0 mm
02:57 PM 75.9°F24.4°C 58.6°F14.8°C 55% 2.0 mph NE3.2 kmh NE 2.9 mph4.7 kmh 30.16 in1021.3 mb - 0.00 in0.0 mm 0.00 in0.0 mm
02:52 PM 75.9°F24.4°C 58.6°F14.8°C 55% 2.0 mph 3.2 kmh 0.9 mph1.4 kmh 30.16 in1021.3 mb - 0.00 in0.0 mm 0.00 in0.0 mm
02:47 PM 75.4°F24.1°C 59.0°F15.0°C 57% 2.0 mph ESE3.2 kmh ESE 0.9 mph1.4 kmh 30.16 in1021.3 mb - 0.00 in0.0 mm 0.00 in0.0 mm
02:42 PM 75.0°F23.9°C 58.3°F14.6°C 56% 2.0 mph S3.2 kmh S 2.0 mph3.2 kmh 30.16 in1021.3 mb - 0.00 in0.0 mm 0.00 in0.0 mm
02:37 PM 74.8°F23.8°C 58.6°F14.8°C 57% 2.0 mph SSE3.2 kmh SSE 2.0 mph3.2 kmh 30.16 in1021.3 mb - 0.00 in0.0 mm 0.00 in0.0 mm
02:32 PM 74.8°F23.8°C 59.0°F15.0°C 58% 2.0 mph S3.2 kmh S 0.9 mph1.4 kmh 30.16 in1021.3 mb - 0.00 in0.0 mm 0.00 in0.0 mm
02:27 PM 74.8°F23.8°C 58.6°F14.8°C 57% 2.0 mph SE3.2 kmh SE 0.9 mph1.4 kmh 30.16 in1021.3 mb - 0.00 in0.0 mm 0.00 in0.0 mm
02:22 PM 74.8°F23.8°C 59.5°F15.3°C 59% 2.0 mph E3.2 kmh E 2.0 mph3.2 kmh 30.16 in1021.3 mb - 0.00 in0.0 mm 0.00 in0.0 mm
02:17 PM 74.7°F23.7°C 58.8°F14.9°C 58% 2.0 mph SSW3.2 kmh SSW 2.9 mph4.7 kmh 30.16 in1021.3 mb - 0.00 in0.0 mm 0.00 in0.0 mm
02:12 PM 74.7°F23.7°C 58.8°F14.9°C 58% 2.0 mph SE3.2 kmh SE 2.0 mph3.2 kmh 30.16 in1021.3 mb - 0.00 in0.0 mm 0.00 in0.0 mm
02:07 PM 74.8°F23.8°C 58.6°F14.8°C 57% 2.0 mph SSW3.2 kmh SSW 0.9 mph1.4 kmh 30.16 in1021.3 mb - 0.00 in0.0 mm 0.00 in0.0 mm
02:02 PM 75.0°F23.9°C 58.3°F14.6°C 56% 2.0 mph SSE3.2 kmh SSE -- 30.16 in1021.3 mb - 0.00 in0.0 mm 0.00 in0.0 mm
01:57 PM 75.4°F24.1°C 58.6°F14.8°C 56% 2.9 mph S4.7 kmh S 2.0 mph3.2 kmh 30.16 in1021.3 mb - 0.00 in0.0 mm 0.00 in0.0 mm
01:52 PM 75.4°F24.1°C 59.5°F15.3°C 58% 2.0 mph SW3.2 kmh SW 4.0 mph6.4 kmh 30.17 in1021.7 mb - 0.00 in0.0 mm 0.00 in0.0 mm
01:47 PM 75.0°F23.9°C 59.7°F15.4°C 59% 0.9 mph 1.4 kmh 4.9 mph7.9 kmh 30.17 in1021.7 mb - 0.00 in0.0 mm 0.00 in0.0 mm
01:42 PM 74.8°F23.8°C 59.5°F15.3°C 59% 2.0 mph SE3.2 kmh SE -- 30.17 in1021.7 mb - 0.00 in0.0 mm 0.00 in0.0 mm
01:37 PM 75.0°F23.9°C 59.2°F15.1°C 58% 2.0 mph NE3.2 kmh NE 2.0 mph3.2 kmh 30.16 in1021.3 mb - 0.00 in0.0 mm 0.00 in0.0 mm
01:32 PM 74.7°F23.7°C 59.9°F15.5°C 60% 2.0 mph SW3.2 kmh SW -- 30.16 in1021.3 mb - 0.00 in0.0 mm 0.00 in0.0 mm
01:27 PM 74.8°F23.8°C 59.0°F15.0°C 58% 2.0 mph 3.2 kmh 4.0 mph6.4 kmh 30.16 in1021.3 mb - 0.00 in0.0 mm 0.00 in0.0 mm
01:22 PM 75.0°F23.9°C 60.3°F15.7°C 60% 2.9 mph S4.7 kmh S 2.9 mph4.7 kmh 30.16 in1021.3 mb - 0.00 in0.0 mm 0.00 in0.0 mm
01:17 PM 73.9°F23.3°C 59.2°F15.1°C 60% 2.9 mph SE4.7 kmh SE 2.0 mph3.2 kmh 30.16 in1021.3 mb - 0.00 in0.0 mm 0.00 in0.0 mm
01:12 PM 73.4°F23.0°C 58.3°F14.6°C 59% 2.9 mph E4.7 kmh E 4.9 mph7.9 kmh 30.16 in1021.3 mb - 0.00 in0.0 mm 0.00 in0.0 mm
01:07 PM 73.6°F23.1°C 58.3°F14.6°C 59% 2.9 mph SW4.7 kmh SW 2.9 mph4.7 kmh 30.16 in1021.3 mb - 0.00 in0.0 mm 0.00 in0.0 mm
01:02 PM 74.1°F23.4°C 58.8°F14.9°C 59% 2.0 mph WNW3.2 kmh WNW 2.9 mph4.7 kmh 30.16 in1021.3 mb - 0.00 in0.0 mm 0.00 in0.0 mm
12:57 PM 74.5°F23.6°C 59.2°F15.1°C 59% 2.0 mph SSW3.2 kmh SSW 2.0 mph3.2 kmh 30.16 in1021.3 mb - 0.00 in0.0 mm 0.00 in0.0 mm
12:52 PM 74.5°F23.6°C 59.2°F15.1°C 59% 2.0 mph S3.2 kmh S 0.9 mph1.4 kmh 30.16 in1021.3 mb - 0.00 in0.0 mm 0.00 in0.0 mm
12:47 PM 74.3°F23.5°C 59.9°F15.5°C 61% 2.0 mph S3.2 kmh S 2.9 mph4.7 kmh 30.16 in1021.3 mb - 0.00 in0.0 mm 0.00 in0.0 mm
12:42 PM 73.8°F23.2°C 59.9°F15.5°C 62% 2.0 mph SSW3.2 kmh SSW 2.0 mph3.2 kmh 30.16 in1021.3 mb - 0.00 in0.0 mm 0.00 in0.0 mm
12:37 PM 73.8°F23.2°C 59.0°F15.0°C 60% 2.9 mph 4.7 kmh 2.0 mph3.2 kmh 30.16 in1021.3 mb - 0.00 in0.0 mm 0.00 in0.0 mm
12:32 PM 73.8°F23.2°C 59.9°F15.5°C 62% 2.0 mph S3.2 kmh S 0.9 mph1.4 kmh 30.16 in1021.3 mb - 0.00 in0.0 mm 0.00 in0.0 mm
12:27 PM 73.8°F23.2°C 60.4°F15.8°C 63% 2.0 mph S3.2 kmh S 0.9 mph1.4 kmh 30.16 in1021.3 mb - 0.00 in0.0 mm 0.00 in0.0 mm
12:22 PM 73.8°F23.2°C 59.9°F15.5°C 62% 2.9 mph S4.7 kmh S -- 30.16 in1021.3 mb - 0.00 in0.0 mm 0.00 in0.0 mm
12:17 PM 73.8°F23.2°C 60.4°F15.8°C 63% 2.0 mph SE3.2 kmh SE 4.9 mph7.9 kmh 30.16 in1021.3 mb - 0.00 in0.0 mm 0.00 in0.0 mm
12:12 PM 73.6°F23.1°C 60.6°F15.9°C 64% 2.0 mph S3.2 kmh S 2.9 mph4.7 kmh 30.15 in1021.0 mb - 0.00 in0.0 mm 0.00 in0.0 mm
12:07 PM 73.0°F22.8°C 60.6°F15.9°C 65% 2.9 mph S4.7 kmh S 2.0 mph3.2 kmh 30.15 in1021.0 mb - 0.00 in0.0 mm 0.00 in0.0 mm
12:02 PM 72.9°F22.7°C 60.8°F16.0°C 66% 2.9 mph SW4.7 kmh SW 0.9 mph1.4 kmh 30.15 in1021.0 mb - 0.00 in0.0 mm 0.00 in0.0 mm
11:57 AM 72.1°F22.3°C 60.6°F15.9°C 67% 2.9 mph SE4.7 kmh SE 2.9 mph4.7 kmh 30.15 in1021.0 mb - 0.00 in0.0 mm 0.00 in0.0 mm
11:52 AM 72.1°F22.3°C 60.6°F15.9°C 67% 2.0 mph SSE3.2 kmh SSE 2.0 mph3.2 kmh 30.15 in1021.0 mb - 0.00 in0.0 mm 0.00 in0.0 mm
11:47 AM 72.3°F22.4°C 60.3°F15.7°C 66% 2.0 mph S3.2 kmh S 4.0 mph6.4 kmh 30.15 in1021.0 mb - 0.00 in0.0 mm 0.00 in0.0 mm
11:42 AM 72.5°F22.5°C 60.4°F15.8°C 66% 2.0 mph S3.2 kmh S 4.0 mph6.4 kmh 30.15 in1021.0 mb - 0.00 in0.0 mm 0.00 in0.0 mm
11:37 AM 72.7°F22.6°C 61.2°F16.2°C 67% 2.0 mph E3.2 kmh E -- 30.15 in1021.0 mb - 0.00 in0.0 mm 0.00 in0.0 mm
11:32 AM 72.7°F22.6°C 61.5°F16.4°C 68% 2.0 mph SE3.2 kmh SE 2.9 mph4.7 kmh 30.14 in1020.7 mb - 0.00 in0.0 mm 0.00 in0.0 mm
11:27 AM 72.1°F22.3°C 61.0°F16.1°C 68% 2.0 mph SW3.2 kmh SW 2.9 mph4.7 kmh 30.14 in1020.7 mb - 0.00 in0.0 mm 0.00 in0.0 mm
11:22 AM 71.8°F22.1°C 61.0°F16.1°C 69% 2.0 mph S3.2 kmh S 2.9 mph4.7 kmh 30.14 in1020.7 mb - 0.00 in0.0 mm 0.00 in0.0 mm
11:17 AM 72.1°F22.3°C 60.6°F15.9°C 67% 2.0 mph S3.2 kmh S 0.9 mph1.4 kmh 30.14 in1020.7 mb - 0.00 in0.0 mm 0.00 in0.0 mm
11:12 AM 72.3°F22.4°C 61.5°F16.4°C 69% 2.0 mph SSE3.2 kmh SSE 2.9 mph4.7 kmh 30.14 in1020.7 mb - 0.00 in0.0 mm 0.00 in0.0 mm
11:07 AM 72.1°F22.3°C 61.3°F16.3°C 69% 2.0 mph SSE3.2 kmh SSE -- 30.14 in1020.7 mb - 0.00 in0.0 mm 0.00 in0.0 mm
11:02 AM 71.8°F22.1°C 61.0°F16.1°C 69% 2.9 mph SSW4.7 kmh SSW -- 30.14 in1020.7 mb - 0.00 in0.0 mm 0.00 in0.0 mm
10:57 AM 71.1°F21.7°C 61.2°F16.2°C 71% 2.9 mph SW4.7 kmh SW -- 30.14 in1020.7 mb - 0.00 in0.0 mm 0.00 in0.0 mm
10:52 AM 70.9°F21.6°C 60.6°F15.9°C 70% 2.9 mph SSW4.7 kmh SSW 6.0 mph9.7 kmh 30.14 in1020.7 mb - 0.00 in0.0 mm 0.00 in0.0 mm
10:47 AM 70.9°F21.6°C 62.2°F16.8°C 74% 2.0 mph S3.2 kmh S 2.9 mph4.7 kmh 30.14 in1020.7 mb - 0.00 in0.0 mm 0.00 in0.0 mm
10:42 AM 70.3°F21.3°C 62.1°F16.7°C 75% 2.9 mph S4.7 kmh S 2.9 mph4.7 kmh 30.14 in1020.7 mb - 0.00 in0.0 mm 0.00 in0.0 mm
10:37 AM 69.6°F20.9°C 61.3°F16.3°C 75% 2.9 mph SW4.7 kmh SW 2.0 mph3.2 kmh 30.14 in1020.7 mb - 0.00 in0.0 mm 0.00 in0.0 mm
10:32 AM 69.4°F20.8°C 61.5°F16.4°C 76% 2.9 mph S4.7 kmh S 4.0 mph6.4 kmh 30.14 in1020.7 mb - 0.00 in0.0 mm 0.00 in0.0 mm
10:27 AM 69.3°F20.7°C 62.1°F16.7°C 78% 2.9 mph 4.7 kmh 2.9 mph4.7 kmh 30.14 in1020.7 mb - 0.00 in0.0 mm 0.00 in0.0 mm
10:22 AM 68.9°F20.5°C 61.3°F16.3°C 77% 2.9 mph SSE4.7 kmh SSE 4.0 mph6.4 kmh 30.14 in1020.7 mb - 0.00 in0.0 mm 0.00 in0.0 mm
10:17 AM 68.5°F20.3°C 61.7°F16.5°C 79% 2.9 mph S4.7 kmh S 4.0 mph6.4 kmh 30.14 in1020.7 mb - 0.00 in0.0 mm 0.00 in0.0 mm
10:12 AM 68.2°F20.1°C 61.0°F16.1°C 78% 2.0 mph S3.2 kmh S 4.9 mph7.9 kmh 30.14 in1020.7 mb - 0.00 in0.0 mm 0.00 in0.0 mm
10:07 AM 68.2°F20.1°C 61.3°F16.3°C 79% 2.0 mph S3.2 kmh S 2.0 mph3.2 kmh 30.14 in1020.7 mb - 0.00 in0.0 mm 0.00 in0.0 mm
10:02 AM 67.8°F19.9°C 61.3°F16.3°C 80% 2.0 mph S3.2 kmh S -- 30.14 in1020.7 mb - 0.00 in0.0 mm 0.00 in0.0 mm
09:57 AM 67.8°F19.9°C 61.3°F16.3°C 80% 2.0 mph E3.2 kmh E 2.9 mph4.7 kmh 30.14 in1020.7 mb - 0.00 in0.0 mm 0.00 in0.0 mm
09:52 AM 68.0°F20.0°C 61.2°F16.2°C 79% 2.0 mph SSW3.2 kmh SSW 2.9 mph4.7 kmh 30.13 in1020.3 mb - 0.00 in0.0 mm 0.00 in0.0 mm
09:47 AM 67.8°F19.9°C 61.7°F16.5°C 81% 0.9 mph 1.4 kmh 2.0 mph3.2 kmh 30.13 in1020.3 mb - 0.00 in0.0 mm 0.00 in0.0 mm
09:42 AM 67.6°F19.8°C 61.2°F16.2°C 80% 0.9 mph SW1.4 kmh SW 0.9 mph1.4 kmh 30.13 in1020.3 mb - 0.00 in0.0 mm 0.00 in0.0 mm
09:37 AM 67.6°F19.8°C 61.5°F16.4°C 81% 0.9 mph SSE1.4 kmh SSE 2.9 mph4.7 kmh 30.13 in1020.3 mb - 0.00 in0.0 mm 0.00 in0.0 mm
09:32 AM 67.3°F19.6°C 61.2°F16.2°C 81% 2.0 mph S3.2 kmh S -- 30.13 in1020.3 mb - 0.00 in0.0 mm 0.00 in0.0 mm
09:27 AM 67.3°F19.6°C 61.5°F16.4°C 82% 2.0 mph S3.2 kmh S 2.0 mph3.2 kmh 30.13 in1020.3 mb - 0.00 in0.0 mm 0.00 in0.0 mm
09:22 AM 66.9°F19.4°C 61.0°F16.1°C 81% 2.0 mph SSW3.2 kmh SSW 2.0 mph3.2 kmh 30.12 in1020.0 mb - 0.00 in0.0 mm 0.00 in0.0 mm
09:17 AM 67.1°F19.5°C 61.7°F16.5°C 83% 0.9 mph 1.4 kmh 2.9 mph4.7 kmh 30.12 in1020.0 mb - 0.00 in0.0 mm 0.00 in0.0 mm
09:12 AM 66.6°F19.2°C 61.5°F16.4°C 84% 0.9 mph SSW1.4 kmh SSW 0.9 mph1.4 kmh 30.12 in1020.0 mb - 0.00 in0.0 mm 0.00 in0.0 mm
09:07 AM 66.0°F18.9°C 61.0°F16.1°C 84% 0.9 mph WNW1.4 kmh WNW 0.9 mph1.4 kmh 30.12 in1020.0 mb - 0.00 in0.0 mm 0.00 in0.0 mm
09:02 AM 65.7°F18.7°C 60.6°F15.9°C 84% 0.9 mph SSW1.4 kmh SSW 0.9 mph1.4 kmh 30.12 in1020.0 mb - 0.00 in0.0 mm 0.00 in0.0 mm
08:57 AM 65.5°F18.6°C 60.8°F16.0°C 85% 0.9 mph 1.4 kmh 2.0 mph3.2 kmh 30.12 in1020.0 mb - 0.00 in0.0 mm 0.00 in0.0 mm
08:52 AM 65.1°F18.4°C 60.4°F15.8°C 85% 0.9 mph S1.4 kmh S 0.9 mph1.4 kmh 30.12 in1020.0 mb - 0.00 in0.0 mm 0.00 in0.0 mm
08:47 AM 64.9°F18.3°C 60.3°F15.7°C 85% 0.9 mph SW1.4 kmh SW 4.0 mph6.4 kmh 30.12 in1020.0 mb - 0.00 in0.0 mm 0.00 in0.0 mm
08:42 AM 64.8°F18.2°C 60.1°F15.6°C 85% 2.0 mph SSW3.2 kmh SSW 0.9 mph1.4 kmh 30.11 in1019.6 mb - 0.00 in0.0 mm 0.00 in0.0 mm
08:37 AM 64.9°F18.3°C 59.9°F15.5°C 84% 2.0 mph S3.2 kmh S 0.9 mph1.4 kmh 30.11 in1019.6 mb - 0.00 in0.0 mm 0.00 in0.0 mm
08:32 AM 64.9°F18.3°C 59.9°F15.5°C 84% 2.0 mph S3.2 kmh S 2.0 mph3.2 kmh 30.11 in1019.6 mb - 0.00 in0.0 mm 0.00 in0.0 mm
08:27 AM 64.9°F18.3°C 60.3°F15.7°C 85% 2.0 mph SE3.2 kmh SE 0.9 mph1.4 kmh 30.11 in1019.6 mb - 0.00 in0.0 mm 0.00 in0.0 mm
08:22 AM 64.8°F18.2°C 60.4°F15.8°C 86% 0.9 mph SW1.4 kmh SW -- 30.11 in1019.6 mb - 0.00 in0.0 mm 0.00 in0.0 mm
08:17 AM 64.4°F18.0°C 60.4°F15.8°C 87% 0.9 mph S1.4 kmh S -- 30.11 in1019.6 mb - 0.00 in0.0 mm 0.00 in0.0 mm
08:12 AM 64.0°F17.8°C 60.1°F15.6°C 87% 0.9 mph SSE1.4 kmh SSE 4.0 mph6.4 kmh 30.10 in1019.3 mb - 0.00 in0.0 mm 0.00 in0.0 mm
08:07 AM 63.7°F17.6°C 59.7°F15.4°C 87% 0.9 mph S1.4 kmh S 0.9 mph1.4 kmh 30.10 in1019.3 mb - 0.00 in0.0 mm 0.00 in0.0 mm
08:02 AM 63.3°F17.4°C 59.7°F15.4°C 88% 0.9 mph SW1.4 kmh SW 0.9 mph1.4 kmh 30.10 in1019.3 mb - 0.00 in0.0 mm 0.00 in0.0 mm
07:57 AM 63.1°F17.3°C 59.5°F15.3°C 88% 2.0 mph SE3.2 kmh SE -- 30.10 in1019.3 mb - 0.00 in0.0 mm 0.00 in0.0 mm
07:52 AM 63.0°F17.2°C 59.4°F15.2°C 88% 2.0 mph S3.2 kmh S -- 30.10 in1019.3 mb - 0.00 in0.0 mm 0.00 in0.0 mm
07:47 AM 62.8°F17.1°C 59.2°F15.1°C 88% 2.0 mph S3.2 kmh S -- 30.10 in1019.3 mb - 0.00 in0.0 mm 0.00 in0.0 mm
07:42 AM 62.6°F17.0°C 59.0°F15.0°C 88% 2.0 mph S3.2 kmh S 0.9 mph1.4 kmh 30.10 in1019.3 mb - 0.00 in0.0 mm 0.00 in0.0 mm
07:37 AM 62.4°F16.9°C 59.2°F15.1°C 89% 2.0 mph SSW3.2 kmh SSW -- 30.10 in1019.3 mb - 0.00 in0.0 mm 0.00 in0.0 mm
07:32 AM 62.2°F16.8°C 59.0°F15.0°C 89% 2.0 mph ESE3.2 kmh ESE 4.0 mph6.4 kmh 30.09 in1019.0 mb - 0.00 in0.0 mm 0.00 in0.0 mm
07:27 AM 62.1°F16.7°C 59.2°F15.1°C 90% 2.0 mph S3.2 kmh S -- 30.09 in1019.0 mb - 0.00 in0.0 mm 0.00 in0.0 mm
07:22 AM 61.9°F16.6°C 59.0°F15.0°C 90% 0.9 mph S1.4 kmh S 0.9 mph1.4 kmh 30.09 in1019.0 mb - 0.00 in0.0 mm 0.00 in0.0 mm
07:17 AM 61.7°F16.5°C 58.8°F14.9°C 90% 0.9 mph SW1.4 kmh SW 2.9 mph4.7 kmh 30.09 in1019.0 mb - 0.00 in0.0 mm 0.00 in0.0 mm
07:12 AM 61.5°F16.4°C 58.6°F14.8°C 90% 0.9 mph S1.4 kmh S 2.0 mph3.2 kmh 30.09 in1019.0 mb - 0.00 in0.0 mm 0.00 in0.0 mm
07:07 AM 61.3°F16.3°C 58.6°F14.8°C 91% 2.0 mph SSW3.2 kmh SSW -- 30.09 in1019.0 mb - 0.00 in0.0 mm 0.00 in0.0 mm
07:02 AM 61.2°F16.2°C 58.5°F14.7°C 91% 2.0 mph S3.2 kmh S 0.9 mph1.4 kmh 30.09 in1019.0 mb - 0.00 in0.0 mm 0.00 in0.0 mm
06:57 AM 60.8°F16.0°C 58.1°F14.5°C 91% 0.9 mph S1.4 kmh S 2.0 mph3.2 kmh 30.09 in1019.0 mb - 0.00 in0.0 mm 0.00 in0.0 mm
06:52 AM 60.4°F15.8°C 57.7°F14.3°C 91% 0.9 mph SW1.4 kmh SW 2.0 mph3.2 kmh 30.09 in1019.0 mb - 0.00 in0.0 mm 0.00 in0.0 mm
06:47 AM 60.4°F15.8°C 57.7°F14.3°C 91% 0.9 mph SSW1.4 kmh SSW -- 30.08 in1018.6 mb - 0.00 in0.0 mm 0.00 in0.0 mm
06:42 AM 60.4°F15.8°C 57.7°F14.3°C 91% 0.9 mph S1.4 kmh S 0.9 mph1.4 kmh 30.08 in1018.6 mb - 0.00 in0.0 mm 0.00 in0.0 mm
06:37 AM 60.3°F15.7°C 57.9°F14.4°C 92% 2.0 mph S3.2 kmh S 0.9 mph1.4 kmh 30.08 in1018.6 mb - 0.00 in0.0 mm 0.00 in0.0 mm
06:32 AM 60.3°F15.7°C 57.9°F14.4°C 92% 0.9 mph S1.4 kmh S 0.9 mph1.4 kmh 30.08 in1018.6 mb - 0.00 in0.0 mm 0.00 in0.0 mm
06:27 AM 59.9°F15.5°C 57.9°F14.4°C 93% Calm Calm 2.0 mph3.2 kmh 30.08 in1018.6 mb - 0.00 in0.0 mm 0.00 in0.0 mm
06:22 AM 59.5°F15.3°C 57.6°F14.2°C 93% 0.9 mph W1.4 kmh W 0.9 mph1.4 kmh 30.07 in1018.3 mb - 0.00 in0.0 mm 0.00 in0.0 mm
06:17 AM 59.4°F15.2°C 57.0°F13.9°C 92% 0.9 mph SSW1.4 kmh SSW -- 30.07 in1018.3 mb - 0.00 in0.0 mm 0.00 in0.0 mm
06:12 AM 59.4°F15.2°C 57.0°F13.9°C 92% Calm Calm 0.9 mph1.4 kmh 30.07 in1018.3 mb - 0.00 in0.0 mm 0.00 in0.0 mm
06:07 AM 59.4°F15.2°C 57.0°F13.9°C 92% Calm Calm -- 30.07 in1018.3 mb - 0.00 in0.0 mm 0.00 in0.0 mm
06:02 AM 59.4°F15.2°C 57.0°F13.9°C 92% Calm Calm 0.9 mph1.4 kmh 30.07 in1018.3 mb - 0.00 in0.0 mm 0.00 in0.0 mm
05:57 AM 59.4°F15.2°C 57.0°F13.9°C 92% Calm Calm -- 30.07 in1018.3 mb - 0.00 in0.0 mm 0.00 in0.0 mm
05:52 AM 59.4°F15.2°C 57.0°F13.9°C 92% Calm Calm -- 30.07 in1018.3 mb - 0.00 in0.0 mm 0.00 in0.0 mm
05:47 AM 59.4°F15.2°C 57.4°F14.1°C 93% 0.9 mph SW1.4 kmh SW -- 30.07 in1018.3 mb - 0.00 in0.0 mm 0.00 in0.0 mm
05:42 AM 59.2°F15.1°C 57.2°F14.0°C 93% 0.9 mph SSW1.4 kmh SSW -- 30.07 in1018.3 mb - 0.00 in0.0 mm 0.00 in0.0 mm
05:37 AM 59.2°F15.1°C 57.2°F14.0°C 93% 0.9 mph SSW1.4 kmh SSW -- 30.06 in1017.9 mb - 0.00 in0.0 mm 0.00 in0.0 mm
05:32 AM 58.8°F14.9°C 57.0°F13.9°C 94% 0.9 mph S1.4 kmh S 2.0 mph3.2 kmh 30.06 in1017.9 mb - 0.00 in0.0 mm 0.00 in0.0 mm
05:22 AM 58.3°F14.6°C 56.5°F13.6°C 94% Calm Calm -- 30.06 in1017.9 mb - 0.00 in0.0 mm 0.00 in0.0 mm
05:17 AM 58.3°F14.6°C 56.5°F13.6°C 94% Calm Calm -- 30.06 in1017.9 mb - 0.00 in0.0 mm 0.00 in0.0 mm
05:12 AM 57.9°F14.4°C 56.1°F13.4°C 94% Calm Calm -- 30.05 in1017.6 mb - 0.00 in0.0 mm 0.00 in0.0 mm
05:07 AM 57.9°F14.4°C 55.9°F13.3°C 93% Calm Calm -- 30.05 in1017.6 mb - 0.00 in0.0 mm 0.00 in0.0 mm
05:02 AM 57.7°F14.3°C 55.8°F13.2°C 93% Calm Calm -- 30.05 in1017.6 mb - 0.00 in0.0 mm 0.00 in0.0 mm
04:57 AM 57.7°F14.3°C 55.8°F13.2°C 93% Calm Calm -- 30.05 in1017.6 mb - 0.00 in0.0 mm 0.00 in0.0 mm
04:52 AM 57.6°F14.2°C 55.6°F13.1°C 93% Calm Calm -- 30.05 in1017.6 mb - 0.00 in0.0 mm 0.00 in0.0 mm
04:47 AM 57.6°F14.2°C 55.6°F13.1°C 93% Calm Calm -- 30.05 in1017.6 mb - 0.00 in0.0 mm 0.00 in0.0 mm
04:42 AM 57.4°F14.1°C 55.0°F12.8°C 92% Calm Calm -- 30.04 in1017.3 mb - 0.00 in0.0 mm 0.00 in0.0 mm
04:37 AM 57.4°F14.1°C 55.0°F12.8°C 92% Calm Calm -- 30.04 in1017.3 mb - 0.00 in0.0 mm 0.00 in0.0 mm
04:32 AM 57.6°F14.2°C 55.2°F12.9°C 92% Calm Calm -- 30.04 in1017.3 mb - 0.00 in0.0 mm 0.00 in0.0 mm
04:27 AM 57.7°F14.3°C 55.4°F13.0°C 92% Calm Calm -- 30.04 in1017.3 mb - 0.00 in0.0 mm 0.00 in0.0 mm
04:22 AM 57.9°F14.4°C 55.6°F13.1°C 92% Calm Calm -- 30.04 in1017.3 mb - 0.00 in0.0 mm 0.00 in0.0 mm
04:17 AM 57.9°F14.4°C 55.6°F13.1°C 92% Calm Calm -- 30.04 in1017.3 mb - 0.00 in0.0 mm 0.00 in0.0 mm
04:12 AM 57.9°F14.4°C 55.6°F13.1°C 92% Calm Calm -- 30.03 in1016.9 mb - 0.00 in0.0 mm 0.00 in0.0 mm
04:07 AM 57.9°F14.4°C 55.6°F13.1°C 92% Calm Calm -- 30.03 in1016.9 mb - 0.00 in0.0 mm 0.00 in0.0 mm
04:02 AM 57.9°F14.4°C 55.2°F12.9°C 91% Calm Calm -- 30.03 in1016.9 mb - 0.00 in0.0 mm 0.00 in0.0 mm
03:57 AM 58.1°F14.5°C 55.8°F13.2°C 92% Calm Calm -- 30.03 in1016.9 mb - 0.00 in0.0 mm 0.00 in0.0 mm
03:52 AM 58.3°F14.6°C 55.6°F13.1°C 91% Calm Calm -- 30.03 in1016.9 mb - 0.00 in0.0 mm 0.00 in0.0 mm
03:47 AM 58.3°F14.6°C 55.6°F13.1°C 91% Calm Calm -- 30.02 in1016.6 mb - 0.00 in0.0 mm 0.00 in0.0 mm
03:42 AM 58.5°F14.7°C 55.8°F13.2°C 91% Calm Calm -- 30.02 in1016.6 mb - 0.00 in0.0 mm 0.00 in0.0 mm
03:37 AM 58.5°F14.7°C 55.8°F13.2°C 91% Calm Calm -- 30.02 in1016.6 mb - 0.00 in0.0 mm 0.00 in0.0 mm
03:32 AM 58.6°F14.8°C 55.9°F13.3°C 91% Calm Calm -- 30.02 in1016.6 mb - 0.00 in0.0 mm 0.00 in0.0 mm
03:27 AM 58.8°F14.9°C 56.1°F13.4°C 91% Calm Calm -- 30.02 in1016.6 mb - 0.00 in0.0 mm 0.00 in0.0 mm
03:22 AM 58.8°F14.9°C 56.1°F13.4°C 91% Calm Calm -- 30.01 in1016.3 mb - 0.00 in0.0 mm 0.00 in0.0 mm
03:17 AM 58.8°F14.9°C 56.1°F13.4°C 91% Calm Calm -- 30.02 in1016.6 mb - 0.00 in0.0 mm 0.00 in0.0 mm
03:12 AM 58.8°F14.9°C 55.9°F13.3°C 90% Calm Calm 2.0 mph3.2 kmh 30.01 in1016.3 mb - 0.00 in0.0 mm 0.00 in0.0 mm
03:07 AM 59.0°F15.0°C 56.1°F13.4°C 90% Calm Calm -- 30.01 in1016.3 mb - 0.00 in0.0 mm 0.00 in0.0 mm
03:02 AM 59.2°F15.1°C 56.3°F13.5°C 90% Calm Calm -- 30.01 in1016.3 mb - 0.00 in0.0 mm 0.00 in0.0 mm
02:57 AM 59.2°F15.1°C 56.3°F13.5°C 90% Calm Calm -- 30.01 in1016.3 mb - 0.00 in0.0 mm 0.00 in0.0 mm
02:52 AM 59.4°F15.2°C 56.5°F13.6°C 90% Calm Calm -- 30.01 in1016.3 mb - 0.00 in0.0 mm 0.00 in0.0 mm
02:47 AM 59.4°F15.2°C 56.5°F13.6°C 90% Calm Calm -- 30.01 in1016.3 mb - 0.00 in0.0 mm 0.00 in0.0 mm
02:42 AM 59.4°F15.2°C 56.5°F13.6°C 90% Calm Calm -- 30.01 in1016.3 mb - 0.00 in0.0 mm 0.00 in0.0 mm
02:37 AM 59.4°F15.2°C 56.5°F13.6°C 90% Calm Calm -- 30.00 in1015.9 mb - 0.00 in0.0 mm 0.00 in0.0 mm
02:32 AM 59.4°F15.2°C 56.5°F13.6°C 90% Calm Calm -- 30.00 in1015.9 mb - 0.00 in0.0 mm 0.00 in0.0 mm
02:27 AM 59.4°F15.2°C 56.5°F13.6°C 90% Calm Calm -- 30.00 in1015.9 mb - 0.00 in0.0 mm 0.00 in0.0 mm
02:22 AM 59.4°F15.2°C 56.5°F13.6°C 90% Calm Calm -- 30.00 in1015.9 mb - 0.00 in0.0 mm 0.00 in0.0 mm
02:17 AM 59.4°F15.2°C 56.5°F13.6°C 90% Calm Calm -- 30.00 in1015.9 mb - 0.00 in0.0 mm 0.00 in0.0 mm
02:12 AM 59.4°F15.2°C 56.5°F13.6°C 90% Calm Calm -- 30.00 in1015.9 mb - 0.00 in0.0 mm 0.00 in0.0 mm
02:07 AM 59.4°F15.2°C 56.1°F13.4°C 89% Calm Calm -- 30.00 in1015.9 mb - 0.00 in0.0 mm 0.00 in0.0 mm
02:02 AM 59.4°F15.2°C 56.1°F13.4°C 89% Calm Calm -- 30.00 in1015.9 mb - 0.00 in0.0 mm 0.00 in0.0 mm
01:57 AM 59.4°F15.2°C 56.1°F13.4°C 89% Calm Calm -- 30.00 in1015.9 mb - 0.00 in0.0 mm 0.00 in0.0 mm
01:52 AM 59.5°F15.3°C 56.3°F13.5°C 89% Calm Calm -- 30.00 in1015.9 mb - 0.00 in0.0 mm 0.00 in0.0 mm
01:47 AM 59.5°F15.3°C 55.9°F13.3°C 88% Calm Calm -- 29.99 in1015.6 mb - 0.00 in0.0 mm 0.00 in0.0 mm
01:42 AM 59.5°F15.3°C 55.9°F13.3°C 88% Calm Calm -- 29.99 in1015.6 mb - 0.00 in0.0 mm 0.00 in0.0 mm
01:37 AM 59.7°F15.4°C 55.8°F13.2°C 87% Calm Calm -- 29.99 in1015.6 mb - 0.00 in0.0 mm 0.00 in0.0 mm
01:32 AM 59.9°F15.5°C 55.9°F13.3°C 87% Calm Calm -- 29.99 in1015.6 mb - 0.00 in0.0 mm 0.00 in0.0 mm
01:27 AM 60.3°F15.7°C 56.3°F13.5°C 87% Calm Calm -- 29.99 in1015.6 mb - 0.00 in0.0 mm 0.00 in0.0 mm
01:22 AM 60.4°F15.8°C 56.5°F13.6°C 87% Calm Calm -- 29.99 in1015.6 mb - 0.00 in0.0 mm 0.00 in0.0 mm
01:17 AM 60.4°F15.8°C 56.5°F13.6°C 87% Calm Calm -- 29.99 in1015.6 mb - 0.00 in0.0 mm 0.00 in0.0 mm
01:12 AM 60.6°F15.9°C 56.7°F13.7°C 87% Calm Calm -- 29.99 in1015.6 mb - 0.00 in0.0 mm 0.00 in0.0 mm
01:07 AM 60.6°F15.9°C 56.5°F13.6°C 86% Calm Calm -- 29.99 in1015.6 mb - 0.00 in0.0 mm 0.00 in0.0 mm
01:02 AM 60.6°F15.9°C 56.1°F13.4°C 85% Calm Calm -- 29.99 in1015.6 mb - 0.00 in0.0 mm 0.01 in0.3 mm
12:57 AM 61.0°F16.1°C 56.5°F13.6°C 85% Calm Calm -- 29.99 in1015.6 mb - 0.00 in0.0 mm 0.01 in0.3 mm
12:52 AM 61.3°F16.3°C 56.5°F13.6°C 84% Calm Calm -- 29.99 in1015.6 mb - 0.00 in0.0 mm 0.01 in0.3 mm
12:47 AM 61.7°F16.5°C 56.5°F13.6°C 83% Calm Calm -- 29.99 in1015.6 mb - 0.00 in0.0 mm 0.01 in0.3 mm
12:42 AM 62.1°F16.7°C 56.8°F13.8°C 83% Calm Calm -- 29.99 in1015.6 mb - 0.00 in0.0 mm 0.01 in0.3 mm
12:37 AM 62.4°F16.9°C 56.8°F13.8°C 82% Calm Calm -- 29.99 in1015.6 mb - 0.00 in0.0 mm 0.01 in0.3 mm
12:32 AM 63.0°F17.2°C 57.4°F14.1°C 82% Calm Calm -- 29.99 in1015.6 mb - 0.00 in0.0 mm 0.01 in0.3 mm
12:27 AM 63.1°F17.3°C 57.6°F14.2°C 82% Calm Calm -- 29.99 in1015.6 mb - 0.00 in0.0 mm 0.01 in0.3 mm
12:22 AM 63.3°F17.4°C 57.4°F14.1°C 81% Calm Calm -- 29.99 in1015.6 mb - 0.00 in0.0 mm 0.01 in0.3 mm
12:17 AM 63.5°F17.5°C 57.6°F14.2°C 81% Calm Calm -- 29.99 in1015.6 mb - 0.00 in0.0 mm 0.01 in0.3 mm
12:12 AM 63.7°F17.6°C 57.4°F14.1°C 80% Calm Calm -- 29.98 in1015.2 mb - 0.00 in0.0 mm 0.01 in0.3 mm
12:07 AM 63.7°F17.6°C 57.4°F14.1°C 80% Calm Calm 0.9 mph1.4 kmh 29.98 in1015.2 mb - 0.00 in0.0 mm 0.01 in0.3 mm
12:02 AM 63.9°F17.7°C 57.6°F14.2°C 80% 0.9 mph S1.4 kmh S -- 29.98 in1015.2 mb - 0.00 in0.0 mm 0.01 in0.3 mm